Time;durP1;ratioP1;P1;durP2;ratioP2;P2;SDS_P1;SDS_P2;PMS_P1;PMS_P2;Temp;Humidity;BMP_temperature;BMP_pressure;BME280_temperature;BME280_humidity;BME280_pressure;Samples;Min_cycle;Max_cycle;Signal;HPM_P1;HPM_P2
2023/02/22 22:12:51;;;;;;;51.58;23.63;;;;;;;;;;5067986;28;20786;-61
2023/02/22 22:15:17;;;;;;;47.80;22.52;;;;;;;;;;5067503;28;20476;-63
2023/02/22 22:17:45;;;;;;;46.25;21.80;;;;;;;;;;5067682;28;20032;-58
2023/02/22 22:20:15;;;;;;;46.50;22.20;;;;;;;;;;5067994;28;20039;-60
2023/02/22 22:22:42;;;;;;;46.47;22.42;;;;;;;;;;5067880;28;20542;-71
2023/02/22 22:25:10;;;;;;;43.85;21.75;;;;;;;;;;5067629;28;20032;-60
2023/02/22 22:27:36;;;;;;;43.38;21.25;;;;;;;;;;5067953;28;20028;-61
2023/02/22 22:30:04;;;;;;;49.17;21.80;;;;;;;;;;5067670;28;20025;-61
2023/02/22 22:32:30;;;;;;;46.00;21.13;;;;;;;;;;5066266;28;20045;-60
2023/02/22 22:34:58;;;;;;;47.47;21.25;;;;;;;;;;5056053;28;20065;-60
2023/02/22 22:37:27;;;;;;;41.97;21.38;;;;;;;;;;5055539;28;20036;-60
2023/02/22 22:39:54;;;;;;;36.17;19.27;;;;;;;;;;5051455;28;20025;-60
2023/02/22 22:42:20;;;;;;;36.63;19.88;;;;;;;;;;5047285;28;20132;-61
2023/02/22 22:44:49;;;;;;;35.58;19.80;;;;;;;;;;5046757;28;20496;-60
2023/02/22 22:47:16;;;;;;;37.28;20.15;;;;;;;;;;5047329;28;20404;-61
2023/02/22 22:49:42;;;;;;;36.25;18.80;;;;;;;;;;5047187;28;20051;-59
2023/02/22 22:52:09;;;;;;;31.23;17.80;;;;;;;;;;5047161;28;20033;-61
2023/02/22 22:54:36;;;;;;;31.42;17.70;;;;;;;;;;5047627;28;20112;-61
2023/02/22 22:57:02;;;;;;;32.42;19.73;;;;;;;;;;5047234;28;20040;-60
2023/02/22 22:59:29;;;;;;;26.63;16.80;;;;;;;;;;5046824;28;20084;-64
2023/02/22 23:01:55;;;;;;;29.60;16.70;;;;;;;;;;5047468;28;20033;-62
2023/02/22 23:04:23;;;;;;;27.45;15.25;;;;;;;;;;5049910;28;20047;-61
2023/02/22 23:06:50;;;;;;;28.48;15.32;;;;;;;;;;5060903;28;20476;-60
2023/02/22 23:09:18;;;;;;;25.95;14.90;;;;;;;;;;5056281;28;20498;-61
2023/02/22 23:11:45;;;;;;;27.45;14.60;;;;;;;;;;5054753;28;20217;-66
2023/02/22 23:14:12;;;;;;;23.98;14.18;;;;;;;;;;5054766;28;20025;-69
2023/02/22 23:16:39;;;;;;;26.55;15.30;;;;;;;;;;5056260;28;20029;-62
2023/02/22 23:19:06;;;;;;;26.75;14.80;;;;;;;;;;5054634;28;20078;-59
2023/02/22 23:21:34;;;;;;;21.48;13.13;;;;;;;;;;5055021;28;20044;-61
2023/02/22 23:24:00;;;;;;;26.27;14.82;;;;;;;;;;5054204;28;20017;-72
2023/02/22 23:26:26;;;;;;;27.40;13.57;;;;;;;;;;5048317;28;20388;-61
2023/02/22 23:28:54;;;;;;;26.55;14.30;;;;;;;;;;5045172;28;20044;-73
2023/02/22 23:31:20;;;;;;;31.27;16.17;;;;;;;;;;5053592;28;20162;-59
2023/02/22 23:33:49;;;;;;;27.38;14.68;;;;;;;;;;5053156;28;20052;-59
2023/02/22 23:36:16;;;;;;;26.63;14.68;;;;;;;;;;5052871;28;20133;-71
2023/02/22 23:38:42;;;;;;;23.95;14.20;;;;;;;;;;5052912;28;20029;-59
2023/02/22 23:41:14;;;;;;;33.05;18.00;;;;;;;;;;5064949;28;20060;-59
2023/02/22 23:43:41;;;;;;;39.47;21.23;;;;;;;;;;5072825;28;20507;-60
2023/02/22 23:46:09;;;;;;;38.90;21.13;;;;;;;;;;5072595;28;20392;-59
2023/02/22 23:48:39;;;;;;;38.50;21.38;;;;;;;;;;5072740;28;20067;-61
2023/02/22 23:51:07;;;;;;;42.85;23.10;;;;;;;;;;5072113;28;20473;-60
2023/02/22 23:53:36;;;;;;;40.20;21.80;;;;;;;;;;5072848;28;20028;-58
2023/02/22 23:56:02;;;;;;;38.17;21.13;;;;;;;;;;5070935;28;20028;-60
2023/02/22 23:58:29;;;;;;;35.33;19.95;;;;;;;;;;5072692;28;20063;-62
